sensor_id;sensor_type;location;lat;lon;timestamp;temperature;humidity
22908;DHT22;11620;50.050;8.690;2023-11-21T00:00:17;7.30;99.90
22908;DHT22;11620;50.050;8.690;2023-11-21T00:03:03;7.40;99.90
22908;DHT22;11620;50.050;8.690;2023-11-21T00:05:50;7.50;99.90
22908;DHT22;11620;50.050;8.690;2023-11-21T00:08:37;7.60;99.90
22908;DHT22;11620;50.050;8.690;2023-11-21T00:11:23;7.60;99.90
22908;DHT22;11620;50.050;8.690;2023-11-21T00:14:11;7.60;99.90
22908;DHT22;11620;50.050;8.690;2023-11-21T00:16:59;7.60;99.90
22908;DHT22;11620;50.050;8.690;2023-11-21T00:19:45;7.50;99.90
22908;DHT22;11620;50.050;8.690;2023-11-21T00:22:35;7.30;99.90
22908;DHT22;11620;50.050;8.690;2023-11-21T00:25:21;7.50;99.90
22908;DHT22;11620;50.050;8.690;2023-11-21T00:28:08;7.40;99.90
22908;DHT22;11620;50.050;8.690;2023-11-21T00:30:54;7.50;99.90
22908;DHT22;11620;50.050;8.690;2023-11-21T00:33:41;7.40;99.90
22908;DHT22;11620;50.050;8.690;2023-11-21T00:36:27;7.50;99.90
22908;DHT22;11620;50.050;8.690;2023-11-21T00:39:14;7.40;99.90
22908;DHT22;11620;50.050;8.690;2023-11-21T00:42:00;7.40;99.90
22908;DHT22;11620;50.050;8.690;2023-11-21T00:44:46;7.40;99.90
22908;DHT22;11620;50.050;8.690;2023-11-21T00:47:32;7.50;99.90
22908;DHT22;11620;50.050;8.690;2023-11-21T00:50:19;7.60;99.90
22908;DHT22;11620;50.050;8.690;2023-11-21T00:53:05;7.60;99.90
22908;DHT22;11620;50.050;8.690;2023-11-21T00:55:53;7.60;99.90
22908;DHT22;11620;50.050;8.690;2023-11-21T00:58:43;7.60;99.90
22908;DHT22;11620;50.050;8.690;2023-11-21T01:01:32;7.50;99.90
22908;DHT22;11620;50.050;8.690;2023-11-21T01:04:18;7.50;99.90
22908;DHT22;11620;50.050;8.690;2023-11-21T01:07:05;7.40;99.90
22908;DHT22;11620;50.050;8.690;2023-11-21T01:09:51;7.50;99.90
22908;DHT22;11620;50.050;8.690;2023-11-21T01:12:38;7.50;99.90
22908;DHT22;11620;50.050;8.690;2023-11-21T01:15:25;7.50;99.90
22908;DHT22;11620;50.050;8.690;2023-11-21T01:18:12;7.50;99.90
22908;DHT22;11620;50.050;8.690;2023-11-21T01:20:58;7.50;99.90
22908;DHT22;11620;50.050;8.690;2023-11-21T01:23:46;7.50;99.90
22908;DHT22;11620;50.050;8.690;2023-11-21T01:26:33;7.60;99.90
22908;DHT22;11620;50.050;8.690;2023-11-21T01:29:20;7.70;99.90
22908;DHT22;11620;50.050;8.690;2023-11-21T01:32:06;7.60;99.90
22908;DHT22;11620;50.050;8.690;2023-11-21T01:34:54;7.60;99.90
22908;DHT22;11620;50.050;8.690;2023-11-21T01:37:41;7.60;99.90
22908;DHT22;11620;50.050;8.690;2023-11-21T01:40:27;7.60;99.90
22908;DHT22;11620;50.050;8.690;2023-11-21T01:43:14;7.60;99.90
22908;DHT22;11620;50.050;8.690;2023-11-21T01:46:01;7.60;99.90
22908;DHT22;11620;50.050;8.690;2023-11-21T01:48:48;7.70;99.90
22908;DHT22;11620;50.050;8.690;2023-11-21T01:51:35;7.80;99.90
22908;DHT22;11620;50.050;8.690;2023-11-21T01:54:21;7.90;99.90
22908;DHT22;11620;50.050;8.690;2023-11-21T01:57:08;7.90;99.90
22908;DHT22;11620;50.050;8.690;2023-11-21T01:59:55;7.90;99.90
22908;DHT22;11620;50.050;8.690;2023-11-21T02:02:45;8.00;99.90
22908;DHT22;11620;50.050;8.690;2023-11-21T02:05:32;8.00;99.90
22908;DHT22;11620;50.050;8.690;2023-11-21T02:08:18;8.00;99.90
22908;DHT22;11620;50.050;8.690;2023-11-21T02:11:05;8.00;99.90
22908;DHT22;11620;50.050;8.690;2023-11-21T02:13:53;8.00;99.90
22908;DHT22;11620;50.050;8.690;2023-11-21T02:16:40;8.00;99.90
22908;DHT22;11620;50.050;8.690;2023-11-21T02:19:27;8.10;99.90
22908;DHT22;11620;50.050;8.690;2023-11-21T02:22:15;8.10;99.90
22908;DHT22;11620;50.050;8.690;2023-11-21T02:25:03;8.10;99.90
22908;DHT22;11620;50.050;8.690;2023-11-21T02:27:49;8.10;99.90
22908;DHT22;11620;50.050;8.690;2023-11-21T02:30:37;8.20;99.90
22908;DHT22;11620;50.050;8.690;2023-11-21T02:33:23;8.20;99.90
22908;DHT22;11620;50.050;8.690;2023-11-21T02:36:10;8.20;99.90
22908;DHT22;11620;50.050;8.690;2023-11-21T02:38:56;8.30;99.90
22908;DHT22;11620;50.050;8.690;2023-11-21T02:41:43;8.30;99.90
22908;DHT22;11620;50.050;8.690;2023-11-21T02:44:29;8.30;99.90
22908;DHT22;11620;50.050;8.690;2023-11-21T02:47:16;8.30;99.90
22908;DHT22;11620;50.050;8.690;2023-11-21T02:50:02;8.30;99.90
22908;DHT22;11620;50.050;8.690;2023-11-21T02:52:49;8.20;99.90
22908;DHT22;11620;50.050;8.690;2023-11-21T02:55:36;8.20;99.90
22908;DHT22;11620;50.050;8.690;2023-11-21T02:58:23;8.20;99.90
22908;DHT22;11620;50.050;8.690;2023-11-21T03:01:09;8.20;99.90
22908;DHT22;11620;50.050;8.690;2023-11-21T03:03:57;8.20;99.90
22908;DHT22;11620;50.050;8.690;2023-11-21T03:06:44;8.20;99.90
22908;DHT22;11620;50.050;8.690;2023-11-21T03:09:30;8.20;99.90
22908;DHT22;11620;50.050;8.690;2023-11-21T03:12:17;8.10;99.90
22908;DHT22;11620;50.050;8.690;2023-11-21T03:15:04;8.10;99.90
22908;DHT22;11620;50.050;8.690;2023-11-21T03:17:52;8.10;99.90
22908;DHT22;11620;50.050;8.690;2023-11-21T03:20:38;8.10;99.90
22908;DHT22;11620;50.050;8.690;2023-11-21T03:23:24;8.10;99.90
22908;DHT22;11620;50.050;8.690;2023-11-21T03:26:13;8.10;99.90
22908;DHT22;11620;50.050;8.690;2023-11-21T03:29:00;8.10;99.90
22908;DHT22;11620;50.050;8.690;2023-11-21T03:31:46;8.00;99.90
22908;DHT22;11620;50.050;8.690;2023-11-21T03:34:32;8.00;99.90
22908;DHT22;11620;50.050;8.690;2023-11-21T03:37:19;8.00;99.90
22908;DHT22;11620;50.050;8.690;2023-11-21T03:40:07;8.00;99.90
22908;DHT22;11620;50.050;8.690;2023-11-21T03:42:55;8.00;99.90
22908;DHT22;11620;50.050;8.690;2023-11-21T03:45:41;7.90;99.90
22908;DHT22;11620;50.050;8.690;2023-11-21T03:48:27;7.80;99.90
22908;DHT22;11620;50.050;8.690;2023-11-21T03:51:14;7.80;99.90
22908;DHT22;11620;50.050;8.690;2023-11-21T03:54:00;7.80;99.90
22908;DHT22;11620;50.050;8.690;2023-11-21T03:56:46;7.80;99.90
22908;DHT22;11620;50.050;8.690;2023-11-21T03:59:33;7.90;99.90
22908;DHT22;11620;50.050;8.690;2023-11-21T04:02:19;7.90;99.90
22908;DHT22;11620;50.050;8.690;2023-11-21T04:05:06;7.90;99.90
22908;DHT22;11620;50.050;8.690;2023-11-21T04:07:53;8.00;99.90
22908;DHT22;11620;50.050;8.690;2023-11-21T04:10:39;8.00;99.90
22908;DHT22;11620;50.050;8.690;2023-11-21T04:13:25;8.00;99.90
22908;DHT22;11620;50.050;8.690;2023-11-21T04:16:12;8.00;99.90
22908;DHT22;11620;50.050;8.690;2023-11-21T04:18:58;8.00;99.90
22908;DHT22;11620;50.050;8.690;2023-11-21T04:21:45;8.00;99.90
22908;DHT22;11620;50.050;8.690;2023-11-21T04:24:32;8.00;99.90
22908;DHT22;11620;50.050;8.690;2023-11-21T04:27:18;8.00;99.90
22908;DHT22;11620;50.050;8.690;2023-11-21T04:30:05;8.00;99.90
22908;DHT22;11620;50.050;8.690;2023-11-21T04:32:51;8.00;99.90
22908;DHT22;11620;50.050;8.690;2023-11-21T04:35:38;8.00;99.90
22908;DHT22;11620;50.050;8.690;2023-11-21T04:38:24;8.00;99.90
22908;DHT22;11620;50.050;8.690;2023-11-21T04:41:11;8.00;99.90
22908;DHT22;11620;50.050;8.690;2023-11-21T04:43:58;8.00;99.90
22908;DHT22;11620;50.050;8.690;2023-11-21T04:46:46;8.00;99.90
22908;DHT22;11620;50.050;8.690;2023-11-21T04:49:33;8.00;99.90
22908;DHT22;11620;50.050;8.690;2023-11-21T04:52:19;8.00;99.90
22908;DHT22;11620;50.050;8.690;2023-11-21T04:55:06;8.10;99.90
22908;DHT22;11620;50.050;8.690;2023-11-21T04:57:56;8.00;99.90
22908;DHT22;11620;50.050;8.690;2023-11-21T05:00:42;8.10;99.90
22908;DHT22;11620;50.050;8.690;2023-11-21T05:03:28;8.10;99.90
22908;DHT22;11620;50.050;8.690;2023-11-21T05:06:16;8.10;99.90
22908;DHT22;11620;50.050;8.690;2023-11-21T05:09:02;8.10;99.90
22908;DHT22;11620;50.050;8.690;2023-11-21T05:11:49;8.10;99.90
22908;DHT22;11620;50.050;8.690;2023-11-21T05:14:35;8.10;99.90
22908;DHT22;11620;50.050;8.690;2023-11-21T05:17:21;8.10;99.90
22908;DHT22;11620;50.050;8.690;2023-11-21T05:20:12;8.10;99.90
22908;DHT22;11620;50.050;8.690;2023-11-21T05:22:59;8.10;99.90
22908;DHT22;11620;50.050;8.690;2023-11-21T05:25:46;8.10;99.90
22908;DHT22;11620;50.050;8.690;2023-11-21T05:28:32;8.10;99.90
22908;DHT22;11620;50.050;8.690;2023-11-21T05:31:18;8.10;99.90
22908;DHT22;11620;50.050;8.690;2023-11-21T05:34:05;8.10;99.90
22908;DHT22;11620;50.050;8.690;2023-11-21T05:36:51;8.10;99.90
22908;DHT22;11620;50.050;8.690;2023-11-21T05:39:38;8.10;99.90
22908;DHT22;11620;50.050;8.690;2023-11-21T05:42:24;8.20;99.90
22908;DHT22;11620;50.050;8.690;2023-11-21T05:45:10;8.20;99.90
22908;DHT22;11620;50.050;8.690;2023-11-21T05:47:58;8.20;99.90
22908;DHT22;11620;50.050;8.690;2023-11-21T05:50:44;8.20;99.90
22908;DHT22;11620;50.050;8.690;2023-11-21T05:53:31;8.20;99.90
22908;DHT22;11620;50.050;8.690;2023-11-21T05:56:17;8.20;99.90
22908;DHT22;11620;50.050;8.690;2023-11-21T05:59:04;8.20;99.90
22908;DHT22;11620;50.050;8.690;2023-11-21T06:01:50;8.20;99.90
22908;DHT22;11620;50.050;8.690;2023-11-21T06:04:36;8.20;99.90
22908;DHT22;11620;50.050;8.690;2023-11-21T06:07:23;8.20;99.90
22908;DHT22;11620;50.050;8.690;2023-11-21T06:10:11;8.20;99.90
22908;DHT22;11620;50.050;8.690;2023-11-21T06:13:00;8.20;99.90
22908;DHT22;11620;50.050;8.690;2023-11-21T06:15:46;8.20;99.90
22908;DHT22;11620;50.050;8.690;2023-11-21T06:18:32;8.20;99.90
22908;DHT22;11620;50.050;8.690;2023-11-21T06:21:19;8.20;99.90
22908;DHT22;11620;50.050;8.690;2023-11-21T06:24:05;8.20;99.90
22908;DHT22;11620;50.050;8.690;2023-11-21T06:26:52;8.20;99.90
22908;DHT22;11620;50.050;8.690;2023-11-21T06:29:38;8.20;99.90
22908;DHT22;11620;50.050;8.690;2023-11-21T06:32:24;8.20;99.90
22908;DHT22;11620;50.050;8.690;2023-11-21T06:35:12;8.20;99.90
22908;DHT22;11620;50.050;8.690;2023-11-21T06:37:59;8.20;99.90
22908;DHT22;11620;50.050;8.690;2023-11-21T06:40:45;8.20;99.90
22908;DHT22;11620;50.050;8.690;2023-11-21T06:43:32;8.20;99.90
22908;DHT22;11620;50.050;8.690;2023-11-21T06:46:18;8.20;99.90
22908;DHT22;11620;50.050;8.690;2023-11-21T06:49:05;8.20;99.90
22908;DHT22;11620;50.050;8.690;2023-11-21T06:51:52;8.20;99.90
22908;DHT22;11620;50.050;8.690;2023-11-21T06:54:40;8.20;99.90
22908;DHT22;11620;50.050;8.690;2023-11-21T06:57:26;8.20;99.90
22908;DHT22;11620;50.050;8.690;2023-11-21T07:00:15;8.10;99.90
22908;DHT22;11620;50.050;8.690;2023-11-21T07:03:01;8.10;99.90
22908;DHT22;11620;50.050;8.690;2023-11-21T07:05:48;8.00;99.90
22908;DHT22;11620;50.050;8.690;2023-11-21T07:08:34;8.00;99.90
22908;DHT22;11620;50.050;8.690;2023-11-21T07:11:20;7.90;99.90
22908;DHT22;11620;50.050;8.690;2023-11-21T07:14:07;7.90;99.90
22908;DHT22;11620;50.050;8.690;2023-11-21T07:16:54;7.90;99.90
22908;DHT22;11620;50.050;8.690;2023-11-21T07:19:41;7.80;99.90
22908;DHT22;11620;50.050;8.690;2023-11-21T07:22:27;7.80;99.90
22908;DHT22;11620;50.050;8.690;2023-11-21T07:25:13;7.80;99.90
22908;DHT22;11620;50.050;8.690;2023-11-21T07:28:00;7.80;99.90
22908;DHT22;11620;50.050;8.690;2023-11-21T07:30:46;7.70;99.90
22908;DHT22;11620;50.050;8.690;2023-11-21T07:33:33;7.70;99.90
22908;DHT22;11620;50.050;8.690;2023-11-21T07:36:19;7.80;99.90
22908;DHT22;11620;50.050;8.690;2023-11-21T07:39:11;7.80;99.90
22908;DHT22;11620;50.050;8.690;2023-11-21T07:41:58;8.00;99.90
22908;DHT22;11620;50.050;8.690;2023-11-21T07:44:44;7.80;99.90
22908;DHT22;11620;50.050;8.690;2023-11-21T07:47:32;7.90;99.90
22908;DHT22;11620;50.050;8.690;2023-11-21T07:50:21;7.90;99.90
22908;DHT22;11620;50.050;8.690;2023-11-21T07:53:08;8.00;99.90
22908;DHT22;11620;50.050;8.690;2023-11-21T07:56:08;8.00;99.90
22908;DHT22;11620;50.050;8.690;2023-11-21T07:58:54;8.10;99.90
22908;DHT22;11620;50.050;8.690;2023-11-21T08:01:41;8.10;99.90
22908;DHT22;11620;50.050;8.690;2023-11-21T08:04:29;8.10;99.90
22908;DHT22;11620;50.050;8.690;2023-11-21T08:07:17;8.10;99.90
22908;DHT22;11620;50.050;8.690;2023-11-21T08:10:04;8.20;99.90
22908;DHT22;11620;50.050;8.690;2023-11-21T08:12:53;8.20;99.90
22908;DHT22;11620;50.050;8.690;2023-11-21T08:15:40;8.30;99.90
22908;DHT22;11620;50.050;8.690;2023-11-21T08:18:26;8.30;99.90
22908;DHT22;11620;50.050;8.690;2023-11-21T08:21:13;8.30;99.90
22908;DHT22;11620;50.050;8.690;2023-11-21T08:23:59;8.30;99.90
22908;DHT22;11620;50.050;8.690;2023-11-21T08:26:46;8.30;99.90
22908;DHT22;11620;50.050;8.690;2023-11-21T08:29:32;8.30;99.90
22908;DHT22;11620;50.050;8.690;2023-11-21T08:32:19;8.30;99.90
22908;DHT22;11620;50.050;8.690;2023-11-21T08:35:07;8.30;99.90
22908;DHT22;11620;50.050;8.690;2023-11-21T08:37:53;8.30;99.90
22908;DHT22;11620;50.050;8.690;2023-11-21T08:40:40;8.30;99.90
22908;DHT22;11620;50.050;8.690;2023-11-21T08:43:27;8.10;99.90
22908;DHT22;11620;50.050;8.690;2023-11-21T08:46:13;8.10;99.90
22908;DHT22;11620;50.050;8.690;2023-11-21T08:49:01;8.10;99.90
22908;DHT22;11620;50.050;8.690;2023-11-21T08:51:47;8.00;99.90
22908;DHT22;11620;50.050;8.690;2023-11-21T08:54:34;8.00;99.90
22908;DHT22;11620;50.050;8.690;2023-11-21T08:57:20;8.00;99.90
22908;DHT22;11620;50.050;8.690;2023-11-21T09:00:10;8.10;99.90
22908;DHT22;11620;50.050;8.690;2023-11-21T09:03:03;8.10;99.90
22908;DHT22;11620;50.050;8.690;2023-11-21T09:05:51;8.00;99.90
22908;DHT22;11620;50.050;8.690;2023-11-21T09:08:38;8.00;99.90
22908;DHT22;11620;50.050;8.690;2023-11-21T09:11:24;8.00;99.90
22908;DHT22;11620;50.050;8.690;2023-11-21T09:14:12;8.00;99.90
22908;DHT22;11620;50.050;8.690;2023-11-21T09:17:01;8.00;99.90
22908;DHT22;11620;50.050;8.690;2023-11-21T09:19:47;8.00;99.90
22908;DHT22;11620;50.050;8.690;2023-11-21T09:22:37;8.00;99.90
22908;DHT22;11620;50.050;8.690;2023-11-21T09:25:23;8.10;99.90
22908;DHT22;11620;50.050;8.690;2023-11-21T09:28:10;8.10;99.90
22908;DHT22;11620;50.050;8.690;2023-11-21T09:30:56;8.20;99.90
22908;DHT22;11620;50.050;8.690;2023-11-21T09:33:43;8.20;99.90
22908;DHT22;11620;50.050;8.690;2023-11-21T09:36:30;8.30;99.90
22908;DHT22;11620;50.050;8.690;2023-11-21T09:39:17;8.30;99.90
22908;DHT22;11620;50.050;8.690;2023-11-21T09:42:06;8.20;99.90
22908;DHT22;11620;50.050;8.690;2023-11-21T09:47:57;8.30;99.90
22908;DHT22;11620;50.050;8.690;2023-11-21T09:50:44;8.40;99.90
22908;DHT22;11620;50.050;8.690;2023-11-21T09:53:34;8.40;99.90
22908;DHT22;11620;50.050;8.690;2023-11-21T09:56:21;8.50;99.90
22908;DHT22;11620;50.050;8.690;2023-11-21T09:59:13;8.60;99.90
22908;DHT22;11620;50.050;8.690;2023-11-21T10:02:01;8.60;99.90
22908;DHT22;11620;50.050;8.690;2023-11-21T10:04:48;8.60;99.90
22908;DHT22;11620;50.050;8.690;2023-11-21T10:07:35;8.70;99.90
22908;DHT22;11620;50.050;8.690;2023-11-21T10:10:22;8.70;99.90
22908;DHT22;11620;50.050;8.690;2023-11-21T10:13:11;8.70;99.90
22908;DHT22;11620;50.050;8.690;2023-11-21T10:15:58;8.70;99.90
22908;DHT22;11620;50.050;8.690;2023-11-21T10:18:46;9.20;99.90
22908;DHT22;11620;50.050;8.690;2023-11-21T10:21:33;9.90;99.90
22908;DHT22;11620;50.050;8.690;2023-11-21T10:24:19;10.50;99.90
22908;DHT22;11620;50.050;8.690;2023-11-21T10:27:06;10.90;99.90
22908;DHT22;11620;50.050;8.690;2023-11-21T10:29:52;11.40;99.90
22908;DHT22;11620;50.050;8.690;2023-11-21T10:32:39;11.60;99.90
22908;DHT22;11620;50.050;8.690;2023-11-21T10:35:39;11.90;99.90
22908;DHT22;11620;50.050;8.690;2023-11-21T10:38:26;12.20;99.90
22908;DHT22;11620;50.050;8.690;2023-11-21T10:41:13;12.40;99.90
22908;DHT22;11620;50.050;8.690;2023-11-21T10:44:02;12.50;99.90
22908;DHT22;11620;50.050;8.690;2023-11-21T10:46:54;12.60;99.90
22908;DHT22;11620;50.050;8.690;2023-11-21T10:49:43;12.80;99.90
22908;DHT22;11620;50.050;8.690;2023-11-21T10:52:30;12.80;99.90
22908;DHT22;11620;50.050;8.690;2023-11-21T10:55:20;12.80;99.90
22908;DHT22;11620;50.050;8.690;2023-11-21T10:58:13;12.70;99.90
22908;DHT22;11620;50.050;8.690;2023-11-21T11:01:00;12.70;99.90
22908;DHT22;11620;50.050;8.690;2023-11-21T11:03:50;12.70;99.90
22908;DHT22;11620;50.050;8.690;2023-11-21T11:06:45;12.90;99.90
22908;DHT22;11620;50.050;8.690;2023-11-21T11:09:37;13.00;99.90
22908;DHT22;11620;50.050;8.690;2023-11-21T11:12:24;13.10;99.90
22908;DHT22;11620;50.050;8.690;2023-11-21T11:15:10;13.10;99.90
22908;DHT22;11620;50.050;8.690;2023-11-21T11:17:57;13.20;99.90
22908;DHT22;11620;50.050;8.690;2023-11-21T11:20:45;13.40;99.90
22908;DHT22;11620;50.050;8.690;2023-11-21T11:32:27;13.40;99.90
22908;DHT22;11620;50.050;8.690;2023-11-21T11:35:32;13.40;99.90
22908;DHT22;11620;50.050;8.690;2023-11-21T11:38:23;13.30;99.90
22908;DHT22;11620;50.050;8.690;2023-11-21T11:41:09;13.10;99.90
22908;DHT22;11620;50.050;8.690;2023-11-21T11:43:56;13.00;99.90
22908;DHT22;11620;50.050;8.690;2023-11-21T11:46:44;12.80;99.90
22908;DHT22;11620;50.050;8.690;2023-11-21T11:49:33;12.60;99.90
22908;DHT22;11620;50.050;8.690;2023-11-21T11:55:25;12.20;99.90
22908;DHT22;11620;50.050;8.690;2023-11-21T11:58:12;12.00;99.90
22908;DHT22;11620;50.050;8.690;2023-11-21T12:00:58;11.90;99.90
22908;DHT22;11620;50.050;8.690;2023-11-21T12:07:01;11.70;99.90
22908;DHT22;11620;50.050;8.690;2023-11-21T12:09:49;11.60;99.90
22908;DHT22;11620;50.050;8.690;2023-11-21T12:12:36;11.50;99.90
22908;DHT22;11620;50.050;8.690;2023-11-21T12:15:23;11.50;99.90
22908;DHT22;11620;50.050;8.690;2023-11-21T12:18:09;11.40;99.90
22908;DHT22;11620;50.050;8.690;2023-11-21T12:20:56;11.30;99.90
22908;DHT22;11620;50.050;8.690;2023-11-21T12:23:42;11.30;99.90
22908;DHT22;11620;50.050;8.690;2023-11-21T12:26:29;11.30;99.90
22908;DHT22;11620;50.050;8.690;2023-11-21T12:29:15;11.30;99.90
22908;DHT22;11620;50.050;8.690;2023-11-21T12:32:03;11.40;99.90
22908;DHT22;11620;50.050;8.690;2023-11-21T12:34:50;11.30;99.90
22908;DHT22;11620;50.050;8.690;2023-11-21T12:37:38;11.20;99.90
22908;DHT22;11620;50.050;8.690;2023-11-21T12:40:25;11.10;99.90
22908;DHT22;11620;50.050;8.690;2023-11-21T12:43:11;11.00;99.90
22908;DHT22;11620;50.050;8.690;2023-11-21T12:46:11;10.80;99.90
22908;DHT22;11620;50.050;8.690;2023-11-21T12:48:57;10.80;99.90
22908;DHT22;11620;50.050;8.690;2023-11-21T12:51:46;10.90;99.90
22908;DHT22;11620;50.050;8.690;2023-11-21T12:54:33;10.90;99.90
22908;DHT22;11620;50.050;8.690;2023-11-21T12:57:25;10.80;99.90
22908;DHT22;11620;50.050;8.690;2023-11-21T13:00:16;10.60;99.90
22908;DHT22;11620;50.050;8.690;2023-11-21T13:03:15;10.50;99.90
22908;DHT22;11620;50.050;8.690;2023-11-21T13:06:04;10.50;99.90
22908;DHT22;11620;50.050;8.690;2023-11-21T13:08:51;10.40;99.90
22908;DHT22;11620;50.050;8.690;2023-11-21T13:11:37;10.40;99.90
22908;DHT22;11620;50.050;8.690;2023-11-21T13:14:30;10.40;99.90
22908;DHT22;11620;50.050;8.690;2023-11-21T13:17:18;10.50;99.90
22908;DHT22;11620;50.050;8.690;2023-11-21T13:20:05;10.50;99.90
22908;DHT22;11620;50.050;8.690;2023-11-21T13:22:56;10.60;99.90
22908;DHT22;11620;50.050;8.690;2023-11-21T13:25:46;10.60;99.90
22908;DHT22;11620;50.050;8.690;2023-11-21T13:28:34;10.50;99.90
22908;DHT22;11620;50.050;8.690;2023-11-21T13:31:21;10.50;99.90
22908;DHT22;11620;50.050;8.690;2023-11-21T13:34:08;10.50;99.90
22908;DHT22;11620;50.050;8.690;2023-11-21T13:36:55;10.50;99.90
22908;DHT22;11620;50.050;8.690;2023-11-21T13:39:44;10.40;99.90
22908;DHT22;11620;50.050;8.690;2023-11-21T13:42:35;10.40;99.90
22908;DHT22;11620;50.050;8.690;2023-11-21T13:45:22;10.30;99.90
22908;DHT22;11620;50.050;8.690;2023-11-21T13:48:10;10.20;99.90
22908;DHT22;11620;50.050;8.690;2023-11-21T13:51:00;10.20;99.90
22908;DHT22;11620;50.050;8.690;2023-11-21T13:53:56;10.20;99.90
22908;DHT22;11620;50.050;8.690;2023-11-21T13:56:43;10.10;99.90
22908;DHT22;11620;50.050;8.690;2023-11-21T13:59:32;10.00;99.90
22908;DHT22;11620;50.050;8.690;2023-11-21T14:02:19;10.00;99.90
22908;DHT22;11620;50.050;8.690;2023-11-21T14:05:14;9.90;99.90
22908;DHT22;11620;50.050;8.690;2023-11-21T14:08:00;9.90;99.90
22908;DHT22;11620;50.050;8.690;2023-11-21T14:10:49;10.00;99.90
22908;DHT22;11620;50.050;8.690;2023-11-21T14:13:41;10.00;99.90
22908;DHT22;11620;50.050;8.690;2023-11-21T14:16:32;10.10;99.90
22908;DHT22;11620;50.050;8.690;2023-11-21T14:19:18;10.00;99.90
22908;DHT22;11620;50.050;8.690;2023-11-21T14:22:05;9.90;99.90
22908;DHT22;11620;50.050;8.690;2023-11-21T14:24:51;9.80;99.90
22908;DHT22;11620;50.050;8.690;2023-11-21T14:27:38;9.80;99.90
22908;DHT22;11620;50.050;8.690;2023-11-21T14:30:24;9.70;99.90
22908;DHT22;11620;50.050;8.690;2023-11-21T14:33:12;9.70;99.90
22908;DHT22;11620;50.050;8.690;2023-11-21T14:35:59;9.70;99.90
22908;DHT22;11620;50.050;8.690;2023-11-21T14:38:45;9.80;99.90
22908;DHT22;11620;50.050;8.690;2023-11-21T14:41:31;9.80;99.90
22908;DHT22;11620;50.050;8.690;2023-11-21T14:44:18;9.70;99.90
22908;DHT22;11620;50.050;8.690;2023-11-21T14:47:04;9.70;99.90
22908;DHT22;11620;50.050;8.690;2023-11-21T14:50:01;9.70;99.90
22908;DHT22;11620;50.050;8.690;2023-11-21T14:53:11;9.70;99.90
22908;DHT22;11620;50.050;8.690;2023-11-21T14:55:59;9.70;99.90
22908;DHT22;11620;50.050;8.690;2023-11-21T14:58:46;9.70;99.90
22908;DHT22;11620;50.050;8.690;2023-11-21T15:01:33;9.70;99.90
22908;DHT22;11620;50.050;8.690;2023-11-21T15:04:30;9.70;99.90
22908;DHT22;11620;50.050;8.690;2023-11-21T15:07:22;9.60;99.90
22908;DHT22;11620;50.050;8.690;2023-11-21T15:10:11;9.50;99.90
22908;DHT22;11620;50.050;8.690;2023-11-21T15:13:00;9.50;99.90
22908;DHT22;11620;50.050;8.690;2023-11-21T15:15:48;9.50;99.90
22908;DHT22;11620;50.050;8.690;2023-11-21T15:18:35;9.50;99.90
22908;DHT22;11620;50.050;8.690;2023-11-21T15:21:21;9.50;99.90
22908;DHT22;11620;50.050;8.690;2023-11-21T15:24:11;9.50;99.90
22908;DHT22;11620;50.050;8.690;2023-11-21T15:26:58;9.50;99.90
22908;DHT22;11620;50.050;8.690;2023-11-21T15:29:45;9.60;99.90
22908;DHT22;11620;50.050;8.690;2023-11-21T15:32:31;9.50;99.90
22908;DHT22;11620;50.050;8.690;2023-11-21T15:35:18;9.50;99.90
22908;DHT22;11620;50.050;8.690;2023-11-21T15:38:04;9.50;99.90
22908;DHT22;11620;50.050;8.690;2023-11-21T15:40:51;9.50;99.90
22908;DHT22;11620;50.050;8.690;2023-11-21T15:43:37;9.50;99.90
22908;DHT22;11620;50.050;8.690;2023-11-21T15:46:24;9.40;99.90
22908;DHT22;11620;50.050;8.690;2023-11-21T15:49:10;9.30;99.90
22908;DHT22;11620;50.050;8.690;2023-11-21T15:52:05;9.40;99.90
22908;DHT22;11620;50.050;8.690;2023-11-21T15:54:52;9.40;99.90
22908;DHT22;11620;50.050;8.690;2023-11-21T15:57:40;9.40;99.90
22908;DHT22;11620;50.050;8.690;2023-11-21T16:00:26;9.40;99.90
22908;DHT22;11620;50.050;8.690;2023-11-21T16:03:13;9.40;99.90
22908;DHT22;11620;50.050;8.690;2023-11-21T16:05:59;9.40;99.90
22908;DHT22;11620;50.050;8.690;2023-11-21T16:08:46;9.40;99.90
22908;DHT22;11620;50.050;8.690;2023-11-21T16:11:33;9.40;99.90
22908;DHT22;11620;50.050;8.690;2023-11-21T16:14:19;9.40;99.90
22908;DHT22;11620;50.050;8.690;2023-11-21T16:17:11;9.40;99.90
22908;DHT22;11620;50.050;8.690;2023-11-21T16:19:57;9.40;99.90
22908;DHT22;11620;50.050;8.690;2023-11-21T16:22:44;9.40;99.90
22908;DHT22;11620;50.050;8.690;2023-11-21T16:25:31;9.40;99.90
22908;DHT22;11620;50.050;8.690;2023-11-21T16:28:17;9.40;99.90
22908;DHT22;11620;50.050;8.690;2023-11-21T16:31:04;9.40;99.90
22908;DHT22;11620;50.050;8.690;2023-11-21T16:33:51;9.40;99.90
22908;DHT22;11620;50.050;8.690;2023-11-21T16:36:37;9.40;99.90
22908;DHT22;11620;50.050;8.690;2023-11-21T16:39:23;9.40;99.90
22908;DHT22;11620;50.050;8.690;2023-11-21T16:42:09;9.40;99.90
22908;DHT22;11620;50.050;8.690;2023-11-21T16:44:56;9.30;99.90
22908;DHT22;11620;50.050;8.690;2023-11-21T16:47:43;9.30;99.90
22908;DHT22;11620;50.050;8.690;2023-11-21T16:50:29;9.30;99.90
22908;DHT22;11620;50.050;8.690;2023-11-21T16:53:16;9.30;99.90
22908;DHT22;11620;50.050;8.690;2023-11-21T16:56:02;9.40;99.90
22908;DHT22;11620;50.050;8.690;2023-11-21T16:58:48;9.40;99.90
22908;DHT22;11620;50.050;8.690;2023-11-21T17:01:36;9.40;99.90
22908;DHT22;11620;50.050;8.690;2023-11-21T17:04:22;9.40;99.90
22908;DHT22;11620;50.050;8.690;2023-11-21T17:07:08;9.40;99.90
22908;DHT22;11620;50.050;8.690;2023-11-21T17:09:56;9.40;99.90
22908;DHT22;11620;50.050;8.690;2023-11-21T17:12:43;9.30;99.90
22908;DHT22;11620;50.050;8.690;2023-11-21T17:15:29;9.30;99.90
22908;DHT22;11620;50.050;8.690;2023-11-21T17:18:15;9.30;99.90
22908;DHT22;11620;50.050;8.690;2023-11-21T17:21:02;9.30;99.90
22908;DHT22;11620;50.050;8.690;2023-11-21T17:23:48;9.30;99.90
22908;DHT22;11620;50.050;8.690;2023-11-21T17:26:34;9.20;99.90
22908;DHT22;11620;50.050;8.690;2023-11-21T17:29:21;9.20;99.90
22908;DHT22;11620;50.050;8.690;2023-11-21T17:32:07;9.10;99.90
22908;DHT22;11620;50.050;8.690;2023-11-21T17:34:54;9.10;99.90
22908;DHT22;11620;50.050;8.690;2023-11-21T17:37:41;9.10;99.90
22908;DHT22;11620;50.050;8.690;2023-11-21T17:40:27;9.00;99.90
22908;DHT22;11620;50.050;8.690;2023-11-21T17:43:14;9.00;99.90
22908;DHT22;11620;50.050;8.690;2023-11-21T17:46:00;9.10;99.90
22908;DHT22;11620;50.050;8.690;2023-11-21T17:48:50;9.00;99.90
22908;DHT22;11620;50.050;8.690;2023-11-21T17:51:39;9.00;99.90
22908;DHT22;11620;50.050;8.690;2023-11-21T17:54:25;9.00;99.90
22908;DHT22;11620;50.050;8.690;2023-11-21T17:57:12;9.00;99.90
22908;DHT22;11620;50.050;8.690;2023-11-21T17:59:58;9.00;99.90
22908;DHT22;11620;50.050;8.690;2023-11-21T18:02:45;9.00;99.90
22908;DHT22;11620;50.050;8.690;2023-11-21T18:05:31;9.00;99.90
22908;DHT22;11620;50.050;8.690;2023-11-21T18:08:17;9.00;99.90